Time;durP1;ratioP1;P1;durP2;ratioP2;P2;SDS_P1;SDS_P2;PMS_P1;PMS_P2;Temp;Humidity;BMP_temperature;BMP_pressure;BME280_temperature;BME280_humidity;BME280_pressure;Samples;Min_cycle;Max_cycle;Signal;HPM_P1;HPM_P2
2023/10/13 00:00:25;;;;;;;;;16.00;12.33;;;;;21.16;71.37;100928.97;5101474;27;45445;-71
2023/10/13 00:02:52;;;;;;;;;9.67;7.00;;;;;21.14;71.50;100924.81;5102318;27;45471;-72
2023/10/13 00:05:18;;;;;;;;;5.25;5.25;;;;;21.16;71.70;100922.75;5101456;27;46515;-71
2023/10/13 00:07:43;;;;;;;;;9.00;7.00;;;;;21.17;71.80;100921.69;5101153;27;45465;-72
2023/10/13 00:10:09;;;;;;;;;5.33;4.67;;;;;21.15;71.61;100921.06;5086038;27;48770;-72
2023/10/13 00:12:37;;;;;;;;;4.67;4.67;;;;;21.08;71.69;100912.97;5111400;27;45173;-71
2023/10/13 00:15:04;;;;;;;;;5.00;5.00;;;;;21.17;71.47;100922.53;5101536;27;47759;-70
2023/10/13 00:17:32;;;;;;;;;7.25;6.25;;;;;21.20;71.38;100921.28;5100629;27;45521;-72
2023/10/13 00:20:00;;;;;;;;;8.00;7.00;;;;;21.20;71.38;100918.56;5097731;27;45330;-72
2023/10/13 00:22:27;;;;;;;;;8.67;8.67;;;;;21.20;71.49;100902.34;5087875;27;45461;-72
2023/10/13 00:24:58;;;;;;;;;6.00;6.00;;;;;21.23;70.97;100901.97;5087055;27;47677;-72
2023/10/13 00:27:28;;;;;;;;;5.33;5.33;;;;;21.27;71.04;100903.22;5099318;27;45442;-72
2023/10/13 00:30:21;;;;;;;;;8.75;5.75;;;;;21.24;71.24;100895.53;5106260;27;45347;-71
2023/10/13 00:32:56;;;;;;;;;7.67;6.33;;;;;21.05;70.98;100861.22;5101006;27;46510;-72
2023/10/13 00:35:37;;;;;;;;;5.50;5.25;;;;;21.17;70.78;100878.44;5097902;27;47769;-71
2023/10/13 00:38:04;;;;;;;;;5.00;5.00;;;;;20.98;70.81;100849.56;5097737;27;45495;-71
2023/10/13 00:48:33;;;;;;;;;8.00;7.00;;;;;21.24;71.08;100907.19;5097124;27;45432;-72
2023/10/13 00:51:02;;;;;;;;;6.25;6.25;;;;;21.19;71.47;100882.59;5097736;27;45558;-72
2023/10/13 00:53:29;;;;;;;;;6.67;6.00;;;;;21.26;71.12;100885.34;5115992;27;45377;-71
2023/10/13 00:56:05;;;;;;;;;7.67;7.00;;;;;20.97;71.11;100832.50;5116660;27;46526;-70
2023/10/13 00:58:33;;;;;;;;;8.67;6.67;;;;;21.28;70.85;100883.25;5104644;27;45473;-71
2023/10/13 01:01:17;;;;;;;;;7.00;6.00;;;;;21.17;71.01;100862.22;5111444;27;45250;-71
2023/10/13 01:03:50;;;;;;;;;9.67;8.00;;;;;21.27;71.13;100875.34;5112020;27;45442;-71
2023/10/13 01:06:17;;;;;;;;;9.50;7.00;;;;;21.27;71.43;100881.59;5120495;27;47641;-71
2023/10/13 01:08:50;;;;;;;;;8.33;6.00;;;;;21.23;71.03;100870.34;5100314;27;45391;-71
2023/10/13 01:11:16;;;;;;;;;6.00;6.00;;;;;21.17;71.15;100862.22;5100178;27;45649;-71
2023/10/13 01:13:41;;;;;;;;;7.50;6.00;;;;;21.21;71.03;100860.75;5100468;27;45508;-71
2023/10/13 01:16:07;;;;;;;;;7.00;7.00;;;;;21.26;71.40;100863.69;5108577;27;47340;-71
2023/10/13 01:18:39;;;;;;;;;10.67;8.00;;;;;20.51;71.00;100735.28;5108462;27;45467;-71
2023/10/13 01:21:07;;;;;;;;;10.33;8.67;;;;;21.17;71.45;100843.28;5100416;27;45429;-72
2023/10/13 01:23:37;;;;;;;;;8.33;8.33;;;;;21.19;71.46;100852.00;5107833;27;45339;-71
2023/10/13 01:26:05;;;;;;;;;6.33;6.00;;;;;21.08;71.65;100841.88;5098117;27;46351;-71
2023/10/13 01:28:37;;;;;;;;;6.33;6.33;;;;;20.86;71.50;100812.38;5078543;27;46271;-72
2023/10/13 01:31:08;;;;;;;;;9.67;9.00;;;;;21.10;71.64;100850.59;5106742;27;45328;-71
2023/10/13 01:33:34;;;;;;;;;6.33;6.00;;;;;21.07;71.69;100848.31;5109790;27;45153;-74
2023/10/13 01:36:06;;;;;;;;;8.00;7.67;;;;;21.08;71.87;100850.81;5114225;27;46581;-71
2023/10/13 01:38:33;;;;;;;;;7.33;7.33;;;;;21.08;71.51;100837.28;5115714;27;45516;-70
2023/10/13 01:40:59;;;;;;;;;9.33;7.33;;;;;21.00;72.04;100829.38;5110999;27;45241;-71
2023/10/13 01:43:24;;;;;;;;;13.67;10.67;;;;;21.07;71.76;100834.78;5113883;27;45236;-71
2023/10/13 01:45:49;;;;;;;;;9.33;8.33;;;;;20.91;71.83;100807.16;5101757;27;46338;-74
2023/10/13 01:48:21;;;;;;;;;9.00;6.67;;;;;20.95;71.54;100810.25;5110968;27;45226;-71
2023/10/13 01:50:59;;;;;;;;;9.00;7.00;;;;;21.08;71.69;100826.47;5103574;27;45465;-72
2023/10/13 01:53:25;;;;;;;;;10.33;7.00;;;;;21.05;71.86;100818.78;5104166;27;45610;-71
2023/10/13 01:55:50;;;;;;;;;8.00;8.00;;;;;20.98;71.77;100800.91;5112278;27;46486;-72
2023/10/13 01:58:16;;;;;;;;;9.67;8.00;;;;;20.93;71.57;100783.44;5105615;27;45354;-72
2023/10/13 02:00:43;;;;;;;;;11.00;9.33;;;;;20.67;72.15;100753.78;5105792;27;46151;-71
2023/10/13 02:03:15;;;;;;;;;10.67;8.33;;;;;20.98;72.08;100800.91;5107360;27;45435;-73
2023/10/13 02:05:47;;;;;;;;;9.25;8.75;;;;;20.90;72.42;100797.38;5119815;27;46369;-71
2023/10/13 02:08:23;;;;;;;;;7.67;7.67;;;;;20.62;72.26;100748.16;5102053;27;45291;-71
2023/10/13 02:10:53;;;;;;;;;9.33;9.00;;;;;20.90;72.07;100797.38;5112869;27;45477;-71
2023/10/13 02:13:22;;;;;;;;;10.67;6.67;;;;;20.87;72.48;100794.28;5108466;27;45473;-71
2023/10/13 02:15:51;;;;;;;;;12.00;8.33;;;;;20.75;72.54;100764.34;5103734;27;47744;-70
2023/10/13 02:18:26;;;;;;;;;8.33;7.67;;;;;20.84;72.40;100776.63;5107833;27;45365;-71
2023/10/13 02:20:56;;;;;;;;;11.33;9.33;;;;;20.46;72.46;100713.50;5112493;27;45455;-70
2023/10/13 02:23:29;;;;;;;;;9.67;9.67;;;;;20.81;72.86;100768.91;5119603;27;45341;-72
2023/10/13 02:26:00;;;;;;;;;10.50;9.50;;;;;20.80;72.66;100755.59;5111214;27;46406;-70
2023/10/13 02:28:33;;;;;;;;;8.33;8.00;;;;;20.75;72.80;100741.91;5102585;27;45354;-71
2023/10/13 02:31:03;;;;;;;;;9.00;7.33;;;;;20.41;72.48;100683.56;5099151;27;45427;-70
2023/10/13 02:33:31;;;;;;;;;11.00;9.00;;;;;20.76;72.85;100733.59;5099800;27;45214;-71
2023/10/13 02:36:03;;;;;;;;;10.33;7.67;;;;;20.70;72.86;100715.53;5115995;27;45818;-70
2023/10/13 02:41:07;;;;;;;;;7.50;7.00;;;;;20.75;72.73;100736.50;5101776;27;45569;-71
2023/10/13 02:43:37;;;;;;;;;8.75;7.75;;;;;20.70;72.79;100729.03;5085572;27;45464;-72
2023/10/13 02:46:04;;;;;;;;;11.00;9.00;;;;;20.71;72.78;100744.22;5107369;27;45904;-71
2023/10/13 02:48:39;;;;;;;;;7.75;6.75;;;;;20.67;72.45;100734.88;5099442;27;45363;-72
2023/10/13 02:51:15;;;;;;;;;6.33;6.33;;;;;20.74;72.66;100746.47;5104296;27;45236;-70
2023/10/13 02:53:41;;;;;;;;;11.00;7.00;;;;;20.72;72.61;100737.75;5105244;27;45510;-71
2023/10/13 02:56:06;;;;;;;;;8.33;6.67;;;;;20.71;72.42;100730.69;5099798;27;46544;-71
2023/10/13 02:58:38;;;;;;;;;9.75;8.00;;;;;20.68;72.87;100727.59;5098212;27;59702;-71
2023/10/13 03:01:17;;;;;;;;;9.33;8.33;;;;;20.11;72.50;100638.09;5099309;27;45450;-71
2023/10/13 03:03:54;;;;;;;;;10.33;8.33;;;;;20.67;72.67;100724.06;5105174;27;45432;-71
2023/10/13 03:06:23;;;;;;;;;12.67;8.33;;;;;20.68;72.50;100725.72;5108443;27;46807;-72
2023/10/13 03:08:49;;;;;;;;;7.33;6.33;;;;;20.69;72.36;100727.38;5094095;27;45697;-71
2023/10/13 03:11:14;;;;;;;;;9.67;7.67;;;;;20.60;72.50;100710.53;5100186;27;45507;-72
2023/10/13 03:13:45;;;;;;;;;8.00;7.67;;;;;20.63;72.18;100703.91;5113398;27;45449;-71
2023/10/13 03:16:16;;;;;;;;;5.67;5.67;;;;;20.66;72.48;100714.31;5100938;27;46610;-70
2023/10/13 03:18:53;;;;;;;;;10.00;8.67;;;;;20.58;72.42;100711.81;5097899;27;45439;-70
2023/10/13 03:21:29;;;;;;;;;9.00;7.00;;;;;20.59;72.47;100702.66;5113776;27;45306;-71
2023/10/13 03:24:06;;;;;;;;;9.33;7.00;;;;;20.62;72.48;100702.22;5106780;27;45263;-72
2023/10/13 03:26:36;;;;;;;;;12.33;9.67;;;;;20.52;72.46;100685.63;5098281;27;45769;-72
2023/10/13 03:29:04;;;;;;;;;10.00;8.33;;;;;20.59;72.53;100689.16;5102627;27;45646;-70
2023/10/13 03:31:36;;;;;;;;;11.33;11.33;;;;;20.63;72.21;100693.13;5118279;27;45314;-72
2023/10/13 03:34:03;;;;;;;;;9.00;9.00;;;;;20.63;71.78;100685.84;5102775;27;45394;-71
2023/10/13 03:39:13;;;;;;;;;8.67;8.67;;;;;20.65;71.63;100677.53;5097691;27;45385;-71
2023/10/13 03:41:39;;;;;;;;;10.00;9.00;;;;;20.65;71.57;100678.34;5099858;27;45435;-76
2023/10/13 03:44:12;;;;;;;;;5.33;5.33;;;;;20.36;71.52;100624.78;5088421;27;45296;-71
2023/10/13 03:46:40;;;;;;;;;10.00;8.00;;;;;20.55;71.31;100655.50;5106665;27;46879;-72
2023/10/13 03:49:12;;;;;;;;;9.33;8.67;;;;;20.61;71.08;100657.34;5109958;27;45337;-72
2023/10/13 03:51:41;;;;;;;;;12.67;9.00;;;;;20.60;71.28;100664.63;5101719;27;45484;-71
2023/10/13 03:54:15;;;;;;;;;8.00;8.00;;;;;20.54;70.77;100648.44;5108786;27;45917;-71
2023/10/13 03:56:41;;;;;;;;;8.00;8.00;;;;;20.50;70.83;100644.50;5103944;27;46507;-73
2023/10/13 03:59:17;;;;;;;;;9.00;7.67;;;;;20.57;70.57;100656.94;5095779;27;45509;-72
2023/10/13 04:01:49;;;;;;;;;9.67;9.67;;;;;20.51;70.45;100646.16;5098229;27;45724;-71
2023/10/13 04:04:34;;;;;;;;;12.67;9.67;;;;;20.48;70.09;100625.00;5109169;27;45315;-72
2023/10/13 04:17:33;;;;;;;;;11.00;9.67;;;;;20.50;68.42;100633.72;5098999;27;46476;-72
2023/10/13 04:25:35;;;;;;;;;11.67;10.67;;;;;20.46;66.61;100632.47;5107524;27;45320;-71
2023/10/13 04:41:24;;;;;;;;;7.33;6.00;;;;;20.48;65.80;100600.69;5111335;27;45418;-71
2023/10/13 04:43:55;;;;;;;;;12.67;10.00;;;;;20.48;65.69;100600.69;5103947;27;45612;-78
2023/10/13 04:49:39;;;;;;;;;10.00;9.00;;;;;20.46;65.26;100589.28;5035302;28;46027;-71
2023/10/13 04:54:45;;;;;;;;;11.00;10.00;;;;;20.44;65.00;100583.25;5079204;27;45442;-72
2023/10/13 04:57:25;;;;;;;;;10.00;8.67;;;;;20.47;64.59;100589.06;5100829;27;45363;-73
2023/10/13 05:05:11;;;;;;;;;9.00;9.00;;;;;20.28;63.85;100539.44;5112964;27;45490;-72
2023/10/13 06:29:57;;;;;;;;;16.67;15.33;;;;;19.88;66.59;100502.78;5098882;27;45550;-72
2023/10/13 06:32:28;;;;;;;;;16.33;14.67;;;;;20.14;66.50;100527.00;5080302;27;45268;-71
2023/10/13 06:34:57;;;;;;;;;15.33;14.00;;;;;20.02;66.49;100499.88;5098925;27;45454;-72
2023/10/13 06:37:25;;;;;;;;;14.00;14.00;;;;;20.18;65.85;100533.63;5098281;27;46722;-71
2023/10/13 06:39:56;;;;;;;;;15.67;12.00;;;;;20.02;65.40;100505.25;5104399;27;45439;-73
2023/10/13 06:42:27;;;;;;;;;15.33;14.33;;;;;20.20;65.73;100530.72;5102442;27;45388;-72
2023/10/13 06:44:56;;;;;;;;;17.00;15.33;;;;;20.21;65.41;100525.13;5098797;27;45385;-71
2023/10/13 06:47:24;;;;;;;;;12.67;11.67;;;;;20.22;65.09;100532.19;5098372;27;45614;-72
2023/10/13 06:49:54;;;;;;;;;14.67;13.33;;;;;20.03;64.64;100495.28;5085820;27;45582;-71
2023/10/13 06:52:22;;;;;;;;;12.67;9.67;;;;;20.28;64.75;100523.25;5101832;27;45322;-71
2023/10/13 06:54:50;;;;;;;;;9.33;9.33;;;;;20.07;64.70;100491.13;5111451;27;45274;-72
2023/10/13 06:57:20;;;;;;;;;19.33;15.33;;;;;20.31;64.45;100533.59;5098631;27;46368;-75
2023/10/13 06:59:46;;;;;;;;;16.00;14.33;;;;;20.31;64.29;100525.50;5102378;27;45504;-71
2023/10/13 07:02:21;;;;;;;;;21.00;18.00;;;;;19.90;63.66;100462.94;5110067;27;45368;-72
2023/10/13 07:04:56;;;;;;;;;13.00;11.67;;;;;20.32;64.01;100529.88;5107131;27;45493;-71
2023/10/13 07:07:25;;;;;;;;;17.67;14.67;;;;;20.36;63.46;100533.78;5105767;27;46693;-71
2023/10/13 07:09:55;;;;;;;;;13.67;11.67;;;;;20.38;63.43;100536.28;5111232;27;46068;-70
2023/10/13 07:12:27;;;;;;;;;14.00;14.00;;;;;20.35;62.85;100521.34;5103976;27;45692;-72
2023/10/13 07:15:03;;;;;;;;;12.00;12.00;;;;;20.12;63.07;100479.69;5113912;27;45357;-73
2023/10/13 07:17:33;;;;;;;;;11.67;11.67;;;;;20.40;62.56;100526.09;5117631;27;46160;-71
2023/10/13 07:20:14;;;;;;;;;18.00;14.00;;;;;20.44;62.52;100524.69;5089646;27;45378;-72
2023/10/13 07:22:40;;;;;;;;;9.00;9.00;;;;;20.46;62.23;100521.75;5100835;27;45571;-70
2023/10/13 07:25:09;;;;;;;;;17.67;14.33;;;;;20.44;62.06;100515.75;5091507;27;45497;-71
2023/10/13 07:27:35;;;;;;;;;12.67;12.00;;;;;20.58;61.69;100525.44;5103631;27;45741;-71
2023/10/13 07:30:41;;;;;;;;;13.00;13.00;;;;;20.71;60.89;100533.47;5106191;27;45479;-71
2023/10/13 07:32:53;;;;;;;;;16.67;13.00;;;;;20.81;60.96;100541.09;5096861;27;45618;-70
2023/10/13 07:35:26;;;;;;;;;12.67;11.67;;;;;20.92;60.38;100535.84;5111755;27;45582;-71
2023/10/13 07:37:53;;;;;;;;;14.67;12.00;;;;;21.00;59.75;100528.53;5103907;27;46965;-70
2023/10/13 07:42:50;;;;;;;;;15.33;13.67;;;;;21.15;58.45;100531.75;5098279;27;45228;-71
2023/10/13 07:45:24;;;;;;;;;16.00;12.33;;;;;21.14;58.48;100530.09;5098492;27;45625;-70
2023/10/13 07:47:50;;;;;;;;;11.67;10.00;;;;;21.14;58.25;100530.94;5105285;27;45854;-72
2023/10/13 07:50:24;;;;;;;;;11.67;10.00;;;;;21.14;58.39;100538.22;5097292;27;45179;-70
2023/10/13 07:52:59;;;;;;;;;13.00;11.67;;;;;21.13;58.33;100533.84;5097198;27;45231;-71
2023/10/13 07:55:24;;;;;;;;;16.33;14.00;;;;;21.14;58.22;100533.63;5103580;27;45473;-71
2023/10/13 07:57:56;;;;;;;;;13.33;10.67;;;;;21.06;57.97;100506.06;5098391;27;46299;-72
2023/10/13 08:00:29;;;;;;;;;9.67;9.67;;;;;21.15;58.01;100527.19;5112478;27;45450;-71
2023/10/13 08:06:04;;;;;;;;;7.33;6.67;;;;;21.34;57.32;100536.22;5105719;27;45214;-71
2023/10/13 08:08:39;;;;;;;;;15.67;13.00;;;;;21.38;57.24;100540.16;5097900;27;45672;-71
2023/10/13 08:11:30;;;;;;;;;14.67;12.67;;;;;21.41;57.09;100530.75;5111454;27;45548;-70
2023/10/13 08:14:11;;;;;;;;;10.00;10.00;;;;;21.37;56.57;100522.28;5114041;27;45379;-69
2023/10/13 08:16:52;;;;;;;;;12.33;11.00;;;;;21.46;56.53;100525.53;5098468;27;45528;-71
2023/10/13 08:19:31;;;;;;;;;13.00;12.00;;;;;21.50;56.85;100519.47;5105813;27;47449;-70
2023/10/13 08:21:59;;;;;;;;;14.67;14.33;;;;;21.60;55.84;100524.38;5108475;27;45247;-70
2023/10/13 08:24:55;;;;;;;;;12.33;12.33;;;;;21.66;56.00;100522.66;5111748;27;45530;-70
2023/10/13 08:27:34;;;;;;;;;12.33;10.33;;;;;21.74;56.08;100519.66;5105422;27;45356;-71
2023/10/13 08:48:12;;;;;;;;;14.67;11.00;;;;;22.32;53.42;100511.19;5096753;27;45706;-72
2023/10/13 08:53:32;;;;;;;;;13.00;13.00;;;;;22.59;52.39;100500.81;5098471;27;45475;-73
2023/10/13 09:17:42;;;;;;;;;9.00;9.00;;;;;23.46;49.60;100480.34;5107156;27;45503;-72
2023/10/13 09:25:34;;;;;;;;;14.00;12.67;;;;;24.10;48.01;100426.13;5103376;27;45374;-72
2023/10/13 09:28:00;;;;;;;;;9.00;8.00;;;;;24.58;47.34;100464.63;5099261;27;45596;-71
2023/10/13 09:30:28;;;;;;;;;10.00;9.00;;;;;24.74;47.49;100457.56;5111764;27;45454;-72
2023/10/13 09:33:04;;;;;;;;;9.67;9.67;;;;;24.66;46.81;100435.41;5080940;27;47738;-72
2023/10/13 09:35:33;;;;;;;;;12.00;10.33;;;;;24.84;46.23;100465.94;5099212;27;45592;-73
2023/10/13 09:38:02;;;;;;;;;7.67;7.33;;;;;24.93;46.39;100466.34;5105382;27;46546;-72
2023/10/13 09:42:59;;;;;;;;;10.00;10.00;;;;;25.16;46.18;100447.19;5107572;27;46130;-71
2023/10/13 09:45:33;;;;;;;;;11.67;10.33;;;;;25.22;45.54;100448.06;5082599;27;45435;-71
2023/10/13 09:48:06;;;;;;;;;8.67;8.33;;;;;25.21;45.48;100453.78;5105227;27;45502;-72
2023/10/13 09:50:37;;;;;;;;;9.33;9.00;;;;;25.17;45.40;100450.72;5103826;27;45480;-72
2023/10/13 09:53:09;;;;;;;;;10.67;9.00;;;;;25.09;45.52;100446.53;5104783;27;46176;-72
2023/10/13 09:55:44;;;;;;;;;11.67;11.33;;;;;24.53;46.13;100358.53;5081496;27;46154;-74
2023/10/13 09:58:13;;;;;;;;;13.67;9.00;;;;;24.95;45.72;100420.69;5098437;27;45392;-72
2023/10/13 10:00:58;;;;;;;;;9.00;9.00;;;;;24.94;45.14;100440.78;5107804;27;45268;-72
2023/10/13 10:03:30;;;;;;;;;9.67;8.67;;;;;24.87;45.88;100430.09;5078828;27;46589;-72
2023/10/13 10:06:03;;;;;;;;;8.00;8.00;;;;;24.75;45.63;100412.19;5096611;27;45451;-71
2023/10/13 10:08:38;;;;;;;;;11.67;10.67;;;;;24.93;45.65;100447.31;5106620;27;45512;-73
2023/10/13 10:11:04;;;;;;;;;8.25;8.00;;;;;24.99;44.93;100421.88;5106045;27;45385;-72
2023/10/13 10:14:00;;;;;;;;;9.25;9.25;;;;;25.04;44.59;100416.53;5105879;27;46350;-70
2023/10/13 10:16:46;;;;;;;;;11.67;10.67;;;;;25.10;44.50;100407.38;5098811;27;45626;-70
2023/10/13 10:19:12;;;;;;;;;9.67;8.33;;;;;25.16;44.17;100406.38;5101449;27;45666;-71
2023/10/13 10:21:38;;;;;;;;;9.33;8.33;;;;;25.04;44.42;100388.50;5101476;27;45182;-71
2023/10/13 10:24:29;;;;;;;;;11.00;10.33;;;;;25.08;44.38;100404.09;5116259;27;46086;-70
2023/10/13 10:26:56;;;;;;;;;10.33;8.00;;;;;25.03;44.96;100414.88;5079864;27;45422;-71
2023/10/13 10:29:21;;;;;;;;;14.67;11.00;;;;;24.87;44.98;100396.63;5106934;27;45248;-72
2023/10/13 10:31:47;;;;;;;;;9.33;9.33;;;;;24.96;44.63;100408.72;5098414;27;45396;-72
2023/10/13 10:34:19;;;;;;;;;8.33;8.33;;;;;24.94;45.39;100405.44;5058008;27;48067;-71
2023/10/13 10:36:53;;;;;;;;;8.33;8.33;;;;;24.97;44.99;100380.47;5106466;27;45587;-71
2023/10/13 10:39:19;;;;;;;;;10.33;9.00;;;;;25.11;45.16;100389.97;5115194;27;45398;-71
2023/10/13 10:41:45;;;;;;;;;10.67;9.33;;;;;25.16;45.01;100392.78;5098761;27;45556;-71
2023/10/13 10:44:47;;;;;;;;;9.33;9.33;;;;;25.23;44.96;100424.41;5105817;27;47385;-72
2023/10/13 10:47:36;;;;;;;;;11.67;8.33;;;;;25.27;44.88;100401.09;5104271;27;45393;-70
2023/10/13 10:50:19;;;;;;;;;14.33;10.00;;;;;25.25;45.01;100405.97;5106477;27;45250;-71
2023/10/13 10:52:46;;;;;;;;;9.50;9.50;;;;;25.21;44.31;100412.97;5109347;27;45621;-71
2023/10/13 10:55:13;;;;;;;;;10.67;9.33;;;;;25.20;44.60;100423.03;5091245;27;47137;-71
2023/10/13 10:57:43;;;;;;;;;10.33;10.00;;;;;25.18;44.29;100414.28;5099964;27;45312;-70
2023/10/13 11:00:21;;;;;;;;;9.33;8.67;;;;;25.14;44.39;100404.97;5104971;27;45264;-71
2023/10/13 11:02:58;;;;;;;;;12.00;10.33;;;;;24.97;44.18;100387.78;5115323;27;45580;-71
2023/10/13 11:05:32;;;;;;;;;11.00;8.00;;;;;25.07;44.31;100416.03;5097266;27;46249;-71
2023/10/13 11:07:58;;;;;;;;;9.33;8.00;;;;;25.05;43.82;100418.19;5097713;27;45265;-71
2023/10/13 11:10:31;;;;;;;;;11.67;9.00;;;;;25.11;44.29;100411.75;5097292;27;45308;-71
2023/10/13 11:15:58;;;;;;;;;8.33;7.33;;;;;25.06;44.63;100389.91;5080864;27;46243;-70
2023/10/13 11:18:38;;;;;;;;;19.67;18.67;;;;;24.88;44.32;100368.38;5109114;27;45418;-70
2023/10/13 11:21:06;;;;;;;;;18.33;18.00;;;;;25.14;44.58;100403.06;5104212;27;45510;-70
2023/10/13 11:23:36;;;;;;;;;13.33;12.00;;;;;25.14;44.37;100397.63;5113885;27;45497;-70
2023/10/13 11:26:03;;;;;;;;;22.33;21.00;;;;;25.15;44.23;100391.13;5105299;27;47206;-71
2023/10/13 11:28:29;;;;;;;;;13.33;12.33;;;;;25.12;44.90;100386.19;5117751;27;45351;-71
2023/10/13 11:30:59;;;;;;;;;22.33;20.33;;;;;25.22;44.34;100385.50;5108802;27;45387;-71
2023/10/13 11:33:29;;;;;;;;;11.33;9.33;;;;;25.28;44.49;100372.81;5109457;27;45465;-70
2023/10/13 11:36:03;;;;;;;;;16.33;13.00;;;;;25.06;44.56;100330.06;5107857;27;46754;-71
2023/10/13 11:43:46;;;;;;;;;19.00;17.67;;;;;25.31;44.13;100364.16;5109803;27;45486;-70
2023/10/13 11:46:14;;;;;;;;;44.33;37.00;;;;;25.43;44.16;100386.66;5103448;27;47594;-72
2023/10/13 11:48:42;;;;;;;;;13.67;12.67;;;;;25.49;44.58;100385.63;5099336;27;45379;-72
2023/10/13 11:51:17;;;;;;;;;9.33;8.33;;;;;25.54;43.93;100366.66;5108600;27;45567;-71
2023/10/13 11:53:53;;;;;;;;;11.33;11.00;;;;;25.62;43.95;100368.91;5101883;27;45473;-71
2023/10/13 11:56:23;;;;;;;;;101.50;93.00;;;;;25.69;44.24;100369.63;5100500;27;46895;-72
2023/10/13 11:58:49;;;;;;;;;15.67;12.67;;;;;25.65;43.83;100352.09;5098490;27;45501;-72
2023/10/13 12:11:45;;;;;;;;;12.00;11.00;;;;;25.63;44.18;100342.53;5087663;27;45553;-74
2023/10/13 12:14:19;;;;;;;;;14.00;12.67;;;;;25.71;44.43;100356.56;5088432;27;45424;-73
2023/10/13 12:16:51;;;;;;;;;12.00;10.67;;;;;25.69;44.40;100339.66;5081585;27;46877;-73
2023/10/13 12:19:23;;;;;;;;;17.67;17.67;;;;;25.72;44.29;100328.25;5094890;27;45357;-72
2023/10/13 12:21:51;;;;;;;;;13.25;12.25;;;;;25.84;44.06;100339.03;5095036;27;45292;-72
2023/10/13 12:24:39;;;;;;;;;19.00;18.33;;;;;25.88;43.85;100340.16;5094704;27;45470;-72
2023/10/13 12:27:23;;;;;;;;;10.67;9.00;;;;;25.92;43.68;100324.13;5091521;27;48011;-72
2023/10/13 12:29:52;;;;;;;;;31.00;27.67;;;;;25.92;44.00;100326.84;5098353;27;45253;-73
2023/10/13 12:32:24;;;;;;;;;16.33;14.00;;;;;25.83;43.87;100301.97;5095528;27;45339;-71
2023/10/13 12:51:39;;;;;;;;;12.33;11.00;;;;;26.12;42.99;100248.06;5099447;27;45471;-74
2023/10/13 12:54:06;;;;;;;;;8.67;8.67;;;;;26.40;43.00;100297.94;5105482;27;45270;-75
2023/10/13 12:56:32;;;;;;;;;10.00;9.00;;;;;26.24;43.70;100267.81;5107056;27;46514;-77
2023/10/13 12:58:58;;;;;;;;;12.00;11.00;;;;;26.36;43.26;100276.66;5103236;27;46172;-74
2023/10/13 13:01:32;;;;;;;;;10.00;8.33;;;;;26.15;43.37;100236.63;5088727;27;46244;-75
2023/10/13 13:03:58;;;;;;;;;13.00;13.00;;;;;26.41;43.55;100284.03;5102277;27;45378;-75
2023/10/13 13:06:29;;;;;;;;;13.33;12.00;;;;;26.29;43.26;100275.19;5083822;27;45580;-73
2023/10/13 13:08:59;;;;;;;;;10.67;8.00;;;;;26.14;42.88;100275.88;5094476;27;46212;-74
2023/10/13 13:11:29;;;;;;;;;12.00;10.00;;;;;26.15;43.33;100279.41;5104836;27;45527;-74
2023/10/13 13:13:55;;;;;;;;;4.00;2.67;;;;;26.27;43.35;100304.59;5101206;27;45511;-74
2023/10/13 13:16:30;;;;;;;;;9.67;9.67;;;;;26.16;43.19;100281.88;5104141;27;45491;-72
2023/10/13 13:18:55;;;;;;;;;9.33;9.00;;;;;26.11;43.37;100264.66;5109845;27;45762;-74
2023/10/13 13:21:23;;;;;;;;;7.33;7.33;;;;;26.18;43.15;100263.38;5109217;27;45508;-74
2023/10/13 13:23:54;;;;;;;;;17.00;17.00;;;;;26.18;42.89;100266.09;5100153;27;45280;-73
2023/10/13 13:26:23;;;;;;;;;9.00;9.00;;;;;26.16;43.11;100276.44;5103040;27;45493;-76
2023/10/13 13:28:50;;;;;;;;;11.33;11.00;;;;;26.07;43.35;100261.66;5111011;27;46541;-73
2023/10/13 13:31:16;;;;;;;;;10.00;10.00;;;;;26.13;43.13;100276.94;5118961;27;45303;-79
2023/10/13 13:33:43;;;;;;;;;12.33;6.67;;;;;26.01;43.49;100255.31;5104403;27;45461;-74
2023/10/13 13:36:13;;;;;;;;;10.00;7.00;;;;;25.81;43.93;100221.59;5105030;27;45432;-73
2023/10/13 13:38:40;;;;;;;;;8.33;8.33;;;;;25.97;43.36;100253.34;5108141;27;45660;-72
2023/10/13 13:41:17;;;;;;;;;11.67;10.00;;;;;25.70;43.98;100212.50;5099252;27;45427;-73
2023/10/13 13:43:50;;;;;;;;;7.67;7.33;;;;;25.95;43.34;100263.69;5080692;27;45608;-74
2023/10/13 13:46:32;;;;;;;;;7.00;7.00;;;;;25.93;43.92;100261.22;5099125;27;45505;-71
2023/10/13 13:49:00;;;;;;;;;10.00;7.00;;;;;25.92;44.00;100266.94;5103890;27;46586;-74
2023/10/13 13:51:32;;;;;;;;;8.67;8.67;;;;;25.90;43.81;100255.47;5095138;27;47602;-73
2023/10/13 13:53:58;;;;;;;;;8.67;7.67;;;;;25.88;44.25;100254.91;5106449;27;45510;-73
2023/10/13 13:56:28;;;;;;;;;7.33;5.67;;;;;25.75;44.55;100231.63;5103141;27;45508;-72
2023/10/13 13:58:55;;;;;;;;;11.33;9.00;;;;;25.76;44.34;100247.69;5098044;27;46019;-72
2023/10/13 14:01:21;;;;;;;;;10.67;9.33;;;;;25.76;44.15;100249.59;5106567;27;45561;-73
2023/10/13 14:03:50;;;;;;;;;9.00;7.67;;;;;25.66;44.43;100241.31;5099116;27;45500;-71
2023/10/13 14:06:23;;;;;;;;;8.67;7.67;;;;;25.50;44.44;100214.97;5099094;27;45389;-71
2023/10/13 14:08:51;;;;;;;;;11.00;10.00;;;;;25.56;44.45;100244.72;5100020;27;46590;-72
2023/10/13 14:11:22;;;;;;;;;8.67;7.00;;;;;25.49;44.46;100230.50;5112503;27;45258;-72
2023/10/13 14:13:48;;;;;;;;;11.33;11.33;;;;;25.51;44.73;100236.50;5107458;27;46538;-72
2023/10/13 14:16:18;;;;;;;;;9.67;8.00;;;;;25.43;44.90;100220.63;5088028;27;45478;-73
2023/10/13 14:18:48;;;;;;;;;11.00;9.00;;;;;25.23;44.50;100190.44;5108072;27;46776;-73
2023/10/13 14:21:16;;;;;;;;;10.33;9.33;;;;;25.45;44.48;100226.66;5101979;27;45331;-76
2023/10/13 14:23:49;;;;;;;;;9.00;9.00;;;;;25.44;44.84;100225.00;5104618;27;45288;-74
2023/10/13 14:26:20;;;;;;;;;13.00;11.00;;;;;25.44;44.53;100227.72;5102269;27;46494;-75
2023/10/13 14:29:00;;;;;;;;;23.67;22.67;;;;;25.30;44.88;100204.69;5098343;27;46460;-74
2023/10/13 14:31:27;;;;;;;;;13.00;11.33;;;;;25.31;45.26;100220.75;5107544;27;45589;-75
2023/10/13 14:33:53;;;;;;;;;9.00;9.00;;;;;25.07;45.26;100192.16;5102637;27;45481;-75
2023/10/13 14:36:19;;;;;;;;;10.00;8.67;;;;;25.08;45.17;100182.94;5084603;27;45499;-72
2023/10/13 14:38:49;;;;;;;;;10.67;10.67;;;;;24.79;44.99;100152.31;5079996;27;47349;-72
2023/10/13 14:41:15;;;;;;;;;10.00;6.67;;;;;25.09;45.62;100204.44;5107434;27;45533;-74
2023/10/13 14:43:47;;;;;;;;;14.00;11.33;;;;;25.11;45.43;100206.91;5098974;27;45367;-72
2023/10/13 14:46:25;;;;;;;;;14.00;12.67;;;;;24.86;45.54;100174.72;5091300;27;45621;-73
2023/10/13 14:48:54;;;;;;;;;10.00;10.00;;;;;24.95;45.96;100189.53;5097846;27;46398;-72
2023/10/13 14:51:20;;;;;;;;;12.67;11.00;;;;;24.91;45.66;100187.56;5106066;27;45380;-73
2023/10/13 14:53:47;;;;;;;;;10.67;9.67;;;;;24.95;46.17;100205.84;5110372;27;45317;-72
2023/10/13 14:56:14;;;;;;;;;11.00;11.00;;;;;24.91;46.22;100187.56;5084267;27;45531;-73
2023/10/13 14:58:42;;;;;;;;;14.00;12.00;;;;;24.93;46.23;100194.41;5112131;27;45517;-73
2023/10/13 15:01:15;;;;;;;;;12.67;10.33;;;;;24.70;45.87;100159.28;5112778;27;45510;-75
2023/10/13 15:03:48;;;;;;;;;8.67;7.00;;;;;24.86;46.01;100191.03;5115365;27;45275;-74
2023/10/13 15:06:28;;;;;;;;;14.33;11.00;;;;;24.44;46.79;100120.88;5096817;27;45594;-71
2023/10/13 15:08:56;;;;;;;;;16.33;13.00;;;;;24.81;46.54;100180.06;5094384;27;46465;-72
2023/10/13 15:11:26;;;;;;;;;8.00;8.00;;;;;24.78;46.82;100178.69;5105183;27;45270;-75
2023/10/13 15:13:52;;;;;;;;;13.00;11.67;;;;;24.70;46.53;100145.69;5100983;27;45473;-72
2023/10/13 15:16:21;;;;;;;;;15.33;11.33;;;;;24.84;47.11;100169.53;5102352;27;45181;-71
2023/10/13 15:18:51;;;;;;;;;21.00;18.33;;;;;24.80;46.79;100159.41;5095896;27;46186;-76
2023/10/13 15:21:26;;;;;;;;;10.00;10.00;;;;;24.56;46.71;100127.00;5096393;27;46362;-73